Flight Track Log - Related Links

Times and Time Zones

All times are in EST time to prevent confusion due to time zone crossing. See the N946RM flight status page for this flight to view local times or setup timezone preferences in your user account.

Time Position Orientation Groundspeed Altitude Reporting Facility
EST Latitude Longitude Course Direction KTS MPH feet Rate Location/Type
Sat 10:50:08 PM 32.7167 -85.5833 311° West 273 314 9,600  Level Atlanta TRACON
Sat 10:50:46 PM 32.7428 -85.6094 320° Northwest 292 336 9,900 245 Climbing Atlanta Center
Sat 10:51:46 PM 32.7961 -85.6822 311° West 297 342 10,000 50 Climbing Atlanta Center
Sat 10:52:46 PM 32.8514 -85.7572 311° West 291 335 10,000  Level Atlanta Center
Sat 10:53:46 PM 32.9047 -85.8300 311° West 291 335 10,000  Level Atlanta Center
Sat 10:54:46 PM 32.9556 -85.9031 310° West 291 335 10,000  Level Atlanta Center
Sat 10:55:00 PM 32.8368 -85.7381 311° West  Level FlightAware Approximate
Sat 10:55:46 PM 33.0108 -85.9783 311° West 291 335 10,000  Level Atlanta Center
Sat 10:56:07 PM 33.0333 -86.0111 309° West 295 339 10,000  Level Atlanta Center
Sat 10:56:46 PM 33.0639 -86.0489 314° West 291 335 10,000  Level Atlanta Center
Sat 10:57:08 PM 33.0822 -86.0867 300° West 288 331 10,000  Level Atlanta Center
Sat 10:57:46 PM 33.1150 -86.1222 318° Northwest 291 335 10,000  Level Atlanta Center
Sat 10:58:08 PM 33.1353 -86.1572 305° West 286 329 10,000  Level Atlanta Center
Sat 10:58:46 PM 33.1681 -86.1953 316° Northwest 291 335 10,000  Level Atlanta Center
Sat 10:59:09 PM 33.1903 -86.2331 305° West 287 330 10,000  Level Atlanta Center
Sat 10:59:46 PM 33.2189 -86.2686 314° West 291 335 10,000 -98 Level Atlanta Center
Sat 11:00:10 PM 33.2431 -86.3089 306° West 286 329 9,900 -800 Descending Atlanta Center
Sat 11:00:46 PM 33.2739 -86.3347 325° Northwest 286 329 9,200 -1,700 Descending Atlanta Center
Sat 11:01:10 PM 33.2983 -86.3725 308° West 285 328 8,200 -1,700 Descending Atlanta Center
Sat 11:01:46 PM 33.3272 -86.3981 324° Northwest 286 329 7,500 -1,475 Descending Atlanta Center
Sat 11:02:11 PM 33.3514 -86.4361 307° West 263 303 6,700 -1,400 Descending Atlanta Center
Sat 11:02:46 PM 33.3761 -86.4592 322° Northwest 269 310 6,100 -1,164 Descending Atlanta Center
Sat 11:03:18 PM 33.4044 -86.4997 310° West 246 283 5,400 -1,200 Descending Atlanta Center
Sat 11:03:46 PM 33.4247 -86.5228 317° Northwest 256 295 4,900 -1,300 Descending Atlanta Center
Sat 11:04:18 PM 33.4553 -86.5661 310° West 256 295 4,100 -1,200 Descending Atlanta Center
Sat 11:04:46 PM 33.4736 -86.5839 321° Northwest 250 288 3,700 -1,082 Descending Atlanta Center
Sat 11:05:19 PM 33.5061 -86.6272 312° West 260 299 3,000 -700 Descending Atlanta Center
Sat 11:05:46 PM 33.5247 -86.6403 330° Northwest 250 288 3,000 -100 Level Atlanta Center
Sat 11:06:19 PM 33.5492 -86.6708 314° West 178 205 2,900 -638 Descending Atlanta Center
Sat 11:07:20 PM 33.5756 -86.7017 316° Northwest 108 124 2,000 -984 Descending Atlanta Center
Sat 11:08:21 PM 33.5769 -86.7342 273° West 97 112 900 -1,082 Descending Atlanta Center
Sat 11:10:00 PM 33.5639 -86.7523 309° West  Level Estimated

Login

Don't have an account? Register now (free) for customized features, flight alerts, and more!